sensor_id;sensor_type;location;lat;lon;timestamp;P1;durP1;ratioP1;P2;durP2;ratioP2
3755;SDS011;1893;52.526;13.360;2023-07-29T00:01:20;14.17;;;6.87;;
3755;SDS011;1893;52.526;13.360;2023-07-29T00:03:45;9.20;;;7.93;;
3755;SDS011;1893;52.526;13.360;2023-07-29T00:06:11;10.53;;;8.20;;
3755;SDS011;1893;52.526;13.360;2023-07-29T00:08:37;9.07;;;8.10;;
3755;SDS011;1893;52.526;13.360;2023-07-29T00:11:02;10.33;;;9.23;;
3755;SDS011;1893;52.526;13.360;2023-07-29T00:13:28;9.63;;;8.63;;
3755;SDS011;1893;52.526;13.360;2023-07-29T00:15:54;10.73;;;8.30;;
3755;SDS011;1893;52.526;13.360;2023-07-29T00:18:20;11.30;;;9.37;;
3755;SDS011;1893;52.526;13.360;2023-07-29T00:20:47;14.07;;;9.77;;
3755;SDS011;1893;52.526;13.360;2023-07-29T00:23:12;13.67;;;9.97;;
3755;SDS011;1893;52.526;13.360;2023-07-29T00:25:38;10.57;;;9.47;;
3755;SDS011;1893;52.526;13.360;2023-07-29T00:28:04;11.60;;;10.37;;
3755;SDS011;1893;52.526;13.360;2023-07-29T00:30:29;10.73;;;8.73;;
3755;SDS011;1893;52.526;13.360;2023-07-29T00:32:55;13.63;;;10.57;;
3755;SDS011;1893;52.526;13.360;2023-07-29T00:35:20;10.53;;;9.53;;
3755;SDS011;1893;52.526;13.360;2023-07-29T00:37:46;11.20;;;10.00;;
3755;SDS011;1893;52.526;13.360;2023-07-29T00:40:14;10.17;;;9.17;;
3755;SDS011;1893;52.526;13.360;2023-07-29T00:42:42;14.50;;;10.17;;
3755;SDS011;1893;52.526;13.360;2023-07-29T00:45:08;12.80;;;11.30;;
3755;SDS011;1893;52.526;13.360;2023-07-29T00:47:34;13.60;;;10.67;;
3755;SDS011;1893;52.526;13.360;2023-07-29T00:50:00;16.10;;;12.00;;
3755;SDS011;1893;52.526;13.360;2023-07-29T00:52:26;12.70;;;10.87;;
3755;SDS011;1893;52.526;13.360;2023-07-29T00:54:52;12.67;;;11.37;;
3755;SDS011;1893;52.526;13.360;2023-07-29T00:57:17;16.03;;;12.03;;
3755;SDS011;1893;52.526;13.360;2023-07-29T00:59:44;16.90;;;12.33;;
3755;SDS011;1893;52.526;13.360;2023-07-29T01:02:09;14.27;;;11.37;;
3755;SDS011;1893;52.526;13.360;2023-07-29T01:04:35;12.43;;;10.80;;
3755;SDS011;1893;52.526;13.360;2023-07-29T01:07:10;14.27;;;10.80;;
3755;SDS011;1893;52.526;13.360;2023-07-29T01:09:56;13.27;;;10.40;;
3755;SDS011;1893;52.526;13.360;2023-07-29T01:12:35;11.23;;;9.60;;
3755;SDS011;1893;52.526;13.360;2023-07-29T01:15:32;12.60;;;10.77;;
3755;SDS011;1893;52.526;13.360;2023-07-29T01:18:22;13.07;;;10.57;;
3755;SDS011;1893;52.526;13.360;2023-07-29T01:20:52;13.97;;;10.27;;
3755;SDS011;1893;52.526;13.360;2023-07-29T01:23:23;16.13;;;10.87;;
3755;SDS011;1893;52.526;13.360;2023-07-29T01:25:50;17.30;;;10.20;;
3755;SDS011;1893;52.526;13.360;2023-07-29T01:28:15;15.93;;;10.50;;
3755;SDS011;1893;52.526;13.360;2023-07-29T01:30:41;10.73;;;9.40;;
3755;SDS011;1893;52.526;13.360;2023-07-29T01:33:18;11.13;;;10.03;;
3755;SDS011;1893;52.526;13.360;2023-07-29T01:36:03;10.33;;;9.27;;
3755;SDS011;1893;52.526;13.360;2023-07-29T01:38:36;12.03;;;9.47;;
3755;SDS011;1893;52.526;13.360;2023-07-29T01:41:06;11.67;;;10.43;;
3755;SDS011;1893;52.526;13.360;2023-07-29T01:43:33;18.07;;;12.67;;
3755;SDS011;1893;52.526;13.360;2023-07-29T01:46:02;14.23;;;11.60;;
3755;SDS011;1893;52.526;13.360;2023-07-29T01:48:27;13.20;;;10.73;;
3755;SDS011;1893;52.526;13.360;2023-07-29T01:50:55;11.87;;;10.67;;
3755;SDS011;1893;52.526;13.360;2023-07-29T01:53:21;12.77;;;10.30;;
3755;SDS011;1893;52.526;13.360;2023-07-29T01:55:46;12.47;;;11.13;;
3755;SDS011;1893;52.526;13.360;2023-07-29T01:58:12;17.40;;;12.00;;
3755;SDS011;1893;52.526;13.360;2023-07-29T02:00:39;14.20;;;10.50;;
3755;SDS011;1893;52.526;13.360;2023-07-29T02:03:05;16.63;;;10.90;;
3755;SDS011;1893;52.526;13.360;2023-07-29T02:05:30;12.50;;;10.80;;
3755;SDS011;1893;52.526;13.360;2023-07-29T02:07:56;12.00;;;9.80;;
3755;SDS011;1893;52.526;13.360;2023-07-29T02:10:22;12.00;;;9.40;;
3755;SDS011;1893;52.526;13.360;2023-07-29T02:12:47;14.10;;;11.17;;
3755;SDS011;1893;52.526;13.360;2023-07-29T02:15:13;17.33;;;11.27;;
3755;SDS011;1893;52.526;13.360;2023-07-29T02:17:40;16.00;;;10.50;;
3755;SDS011;1893;52.526;13.360;2023-07-29T02:20:07;13.37;;;10.17;;
3755;SDS011;1893;52.526;13.360;2023-07-29T02:22:33;11.47;;;10.27;;
3755;SDS011;1893;52.526;13.360;2023-07-29T02:24:59;11.77;;;10.53;;
3755;SDS011;1893;52.526;13.360;2023-07-29T02:27:25;14.07;;;10.07;;
3755;SDS011;1893;52.526;13.360;2023-07-29T02:29:52;14.10;;;11.40;;
3755;SDS011;1893;52.526;13.360;2023-07-29T02:32:18;11.60;;;10.40;;
3755;SDS011;1893;52.526;13.360;2023-07-29T02:34:44;14.67;;;12.30;;
3755;SDS011;1893;52.526;13.360;2023-07-29T02:37:10;13.73;;;9.73;;
3755;SDS011;1893;52.526;13.360;2023-07-29T02:39:36;10.50;;;9.30;;
3755;SDS011;1893;52.526;13.360;2023-07-29T02:42:02;11.57;;;10.10;;
3755;SDS011;1893;52.526;13.360;2023-07-29T02:44:28;11.10;;;9.73;;
3755;SDS011;1893;52.526;13.360;2023-07-29T02:46:53;14.47;;;10.20;;
3755;SDS011;1893;52.526;13.360;2023-07-29T02:49:20;13.43;;;9.87;;
3755;SDS011;1893;52.526;13.360;2023-07-29T02:51:46;10.90;;;9.27;;
3755;SDS011;1893;52.526;13.360;2023-07-29T02:54:12;18.43;;;11.70;;
3755;SDS011;1893;52.526;13.360;2023-07-29T02:56:38;12.67;;;10.73;;
3755;SDS011;1893;52.526;13.360;2023-07-29T02:59:03;15.57;;;11.43;;
3755;SDS011;1893;52.526;13.360;2023-07-29T03:01:30;12.80;;;10.07;;
3755;SDS011;1893;52.526;13.360;2023-07-29T03:03:55;12.53;;;9.97;;
3755;SDS011;1893;52.526;13.360;2023-07-29T03:06:21;12.77;;;10.83;;
3755;SDS011;1893;52.526;13.360;2023-07-29T03:08:47;19.23;;;11.40;;
3755;SDS011;1893;52.526;13.360;2023-07-29T03:11:13;12.80;;;10.60;;
3755;SDS011;1893;52.526;13.360;2023-07-29T03:13:40;13.30;;;9.83;;
3755;SDS011;1893;52.526;13.360;2023-07-29T03:16:15;12.57;;;10.67;;
3755;SDS011;1893;52.526;13.360;2023-07-29T03:18:42;14.00;;;10.60;;
3755;SDS011;1893;52.526;13.360;2023-07-29T03:21:09;15.20;;;11.47;;
3755;SDS011;1893;52.526;13.360;2023-07-29T03:23:35;12.57;;;11.27;;
3755;SDS011;1893;52.526;13.360;2023-07-29T03:26:02;12.90;;;11.50;;
3755;SDS011;1893;52.526;13.360;2023-07-29T03:28:34;14.97;;;11.67;;
3755;SDS011;1893;52.526;13.360;2023-07-29T03:31:00;13.37;;;11.97;;
3755;SDS011;1893;52.526;13.360;2023-07-29T03:33:26;14.20;;;11.80;;
3755;SDS011;1893;52.526;13.360;2023-07-29T03:35:52;12.57;;;11.27;;
3755;SDS011;1893;52.526;13.360;2023-07-29T03:38:18;12.40;;;11.10;;
3755;SDS011;1893;52.526;13.360;2023-07-29T03:40:44;13.33;;;11.07;;
3755;SDS011;1893;52.526;13.360;2023-07-29T03:43:10;12.87;;;11.50;;
3755;SDS011;1893;52.526;13.360;2023-07-29T03:45:36;13.30;;;11.40;;
3755;SDS011;1893;52.526;13.360;2023-07-29T03:48:03;12.80;;;10.80;;
3755;SDS011;1893;52.526;13.360;2023-07-29T03:50:29;12.63;;;11.27;;
3755;SDS011;1893;52.526;13.360;2023-07-29T03:52:56;12.93;;;11.53;;
3755;SDS011;1893;52.526;13.360;2023-07-29T03:55:21;14.20;;;10.90;;
3755;SDS011;1893;52.526;13.360;2023-07-29T03:57:47;15.97;;;11.60;;
3755;SDS011;1893;52.526;13.360;2023-07-29T04:00:13;15.00;;;11.17;;
3755;SDS011;1893;52.526;13.360;2023-07-29T04:02:39;12.10;;;10.17;;
3755;SDS011;1893;52.526;13.360;2023-07-29T04:05:06;12.30;;;11.00;;
3755;SDS011;1893;52.526;13.360;2023-07-29T04:07:33;10.97;;;9.87;;
3755;SDS011;1893;52.526;13.360;2023-07-29T04:09:59;13.33;;;10.53;;
3755;SDS011;1893;52.526;13.360;2023-07-29T04:12:26;11.97;;;10.77;;
3755;SDS011;1893;52.526;13.360;2023-07-29T04:14:51;15.03;;;12.60;;
3755;SDS011;1893;52.526;13.360;2023-07-29T04:17:17;15.37;;;11.77;;
3755;SDS011;1893;52.526;13.360;2023-07-29T04:19:42;13.67;;;11.80;;
3755;SDS011;1893;52.526;13.360;2023-07-29T04:22:08;11.97;;;10.77;;
3755;SDS011;1893;52.526;13.360;2023-07-29T04:24:34;14.50;;;11.33;;
3755;SDS011;1893;52.526;13.360;2023-07-29T04:26:59;12.90;;;11.37;;
3755;SDS011;1893;52.526;13.360;2023-07-29T04:29:25;12.97;;;11.67;;
3755;SDS011;1893;52.526;13.360;2023-07-29T04:31:50;14.13;;;10.93;;
3755;SDS011;1893;52.526;13.360;2023-07-29T04:34:19;12.60;;;10.93;;
3755;SDS011;1893;52.526;13.360;2023-07-29T04:36:45;12.60;;;11.30;;
3755;SDS011;1893;52.526;13.360;2023-07-29T04:39:11;11.97;;;9.60;;
3755;SDS011;1893;52.526;13.360;2023-07-29T04:41:37;10.83;;;9.70;;
3755;SDS011;1893;52.526;13.360;2023-07-29T04:44:03;10.73;;;9.67;;
3755;SDS011;1893;52.526;13.360;2023-07-29T04:46:28;11.07;;;9.93;;
3755;SDS011;1893;52.526;13.360;2023-07-29T04:48:54;11.60;;;10.40;;
3755;SDS011;1893;52.526;13.360;2023-07-29T04:51:20;12.77;;;10.17;;
3755;SDS011;1893;52.526;13.360;2023-07-29T04:53:46;12.00;;;9.00;;
3755;SDS011;1893;52.526;13.360;2023-07-29T04:56:12;11.37;;;10.13;;
3755;SDS011;1893;52.526;13.360;2023-07-29T04:58:38;11.57;;;10.37;;
3755;SDS011;1893;52.526;13.360;2023-07-29T05:01:04;12.70;;;10.10;;
3755;SDS011;1893;52.526;13.360;2023-07-29T05:03:30;11.30;;;10.20;;
3755;SDS011;1893;52.526;13.360;2023-07-29T05:05:55;10.73;;;9.63;;
3755;SDS011;1893;52.526;13.360;2023-07-29T05:08:22;9.53;;;8.53;;
3755;SDS011;1893;52.526;13.360;2023-07-29T05:10:50;9.70;;;8.70;;
3755;SDS011;1893;52.526;13.360;2023-07-29T05:13:17;12.93;;;9.53;;
3755;SDS011;1893;52.526;13.360;2023-07-29T05:15:43;9.40;;;8.43;;
3755;SDS011;1893;52.526;13.360;2023-07-29T05:18:09;11.40;;;9.23;;
3755;SDS011;1893;52.526;13.360;2023-07-29T05:20:35;11.10;;;10.10;;
3755;SDS011;1893;52.526;13.360;2023-07-29T05:23:00;9.80;;;7.83;;
3755;SDS011;1893;52.526;13.360;2023-07-29T05:25:26;9.73;;;8.73;;
3755;SDS011;1893;52.526;13.360;2023-07-29T05:27:52;10.90;;;9.60;;
3755;SDS011;1893;52.526;13.360;2023-07-29T05:30:17;10.20;;;9.20;;
3755;SDS011;1893;52.526;13.360;2023-07-29T05:32:43;11.90;;;9.10;;
3755;SDS011;1893;52.526;13.360;2023-07-29T05:35:09;9.10;;;8.30;;
3755;SDS011;1893;52.526;13.360;2023-07-29T05:37:37;9.33;;;7.80;;
3755;SDS011;1893;52.526;13.360;2023-07-29T05:40:05;9.40;;;8.60;;
3755;SDS011;1893;52.526;13.360;2023-07-29T05:42:31;10.00;;;9.07;;
3755;SDS011;1893;52.526;13.360;2023-07-29T05:44:57;10.33;;;8.20;;
3755;SDS011;1893;52.526;13.360;2023-07-29T05:47:23;9.87;;;8.87;;
3755;SDS011;1893;52.526;13.360;2023-07-29T05:49:48;9.93;;;8.93;;
3755;SDS011;1893;52.526;13.360;2023-07-29T05:52:14;10.07;;;9.07;;
3755;SDS011;1893;52.526;13.360;2023-07-29T05:54:40;9.17;;;8.23;;
3755;SDS011;1893;52.526;13.360;2023-07-29T05:57:07;10.40;;;9.40;;
3755;SDS011;1893;52.526;13.360;2023-07-29T05:59:36;9.10;;;8.20;;
3755;SDS011;1893;52.526;13.360;2023-07-29T06:02:02;8.40;;;7.60;;
3755;SDS011;1893;52.526;13.360;2023-07-29T06:04:28;9.80;;;9.00;;
3755;SDS011;1893;52.526;13.360;2023-07-29T06:06:53;10.53;;;9.07;;
3755;SDS011;1893;52.526;13.360;2023-07-29T06:09:20;9.90;;;7.90;;
3755;SDS011;1893;52.526;13.360;2023-07-29T06:11:47;9.00;;;8.10;;
3755;SDS011;1893;52.526;13.360;2023-07-29T06:14:13;8.70;;;7.90;;
3755;SDS011;1893;52.526;13.360;2023-07-29T06:16:38;10.00;;;8.00;;
3755;SDS011;1893;52.526;13.360;2023-07-29T06:19:04;8.97;;;8.03;;
3755;SDS011;1893;52.526;13.360;2023-07-29T06:21:30;7.50;;;6.90;;
3755;SDS011;1893;52.526;13.360;2023-07-29T06:23:55;10.93;;;8.00;;
3755;SDS011;1893;52.526;13.360;2023-07-29T06:26:21;7.77;;;6.40;;
3755;SDS011;1893;52.526;13.360;2023-07-29T06:28:47;7.13;;;6.43;;
3755;SDS011;1893;52.526;13.360;2023-07-29T06:31:12;10.30;;;6.90;;
3755;SDS011;1893;52.526;13.360;2023-07-29T06:33:38;10.47;;;6.43;;
3755;SDS011;1893;52.526;13.360;2023-07-29T06:36:04;8.27;;;6.00;;
3755;SDS011;1893;52.526;13.360;2023-07-29T06:38:29;6.23;;;5.63;;
3755;SDS011;1893;52.526;13.360;2023-07-29T06:40:55;8.03;;;7.33;;
3755;SDS011;1893;52.526;13.360;2023-07-29T06:43:21;6.90;;;6.30;;
3755;SDS011;1893;52.526;13.360;2023-07-29T06:45:46;9.80;;;7.83;;
3755;SDS011;1893;52.526;13.360;2023-07-29T06:48:12;7.67;;;6.97;;
3755;SDS011;1893;52.526;13.360;2023-07-29T06:50:37;8.33;;;6.60;;
3755;SDS011;1893;52.526;13.360;2023-07-29T06:53:03;6.10;;;5.50;;
3755;SDS011;1893;52.526;13.360;2023-07-29T06:55:29;6.30;;;5.70;;
3755;SDS011;1893;52.526;13.360;2023-07-29T06:57:54;7.00;;;6.30;;
3755;SDS011;1893;52.526;13.360;2023-07-29T07:00:20;6.13;;;5.63;;
3755;SDS011;1893;52.526;13.360;2023-07-29T07:02:46;6.00;;;5.50;;
3755;SDS011;1893;52.526;13.360;2023-07-29T07:05:11;6.30;;;5.80;;
3755;SDS011;1893;52.526;13.360;2023-07-29T07:07:37;7.63;;;6.93;;
3755;SDS011;1893;52.526;13.360;2023-07-29T07:10:03;6.73;;;6.10;;
3755;SDS011;1893;52.526;13.360;2023-07-29T07:12:28;6.53;;;5.23;;
3755;SDS011;1893;52.526;13.360;2023-07-29T07:14:54;6.17;;;5.57;;
3755;SDS011;1893;52.526;13.360;2023-07-29T07:17:20;7.17;;;6.57;;
3755;SDS011;1893;52.526;13.360;2023-07-29T07:19:45;6.60;;;6.00;;
3755;SDS011;1893;52.526;13.360;2023-07-29T07:22:11;6.80;;;6.20;;
3755;SDS011;1893;52.526;13.360;2023-07-29T07:24:37;6.70;;;6.00;;
3755;SDS011;1893;52.526;13.360;2023-07-29T07:27:02;7.23;;;6.53;;
3755;SDS011;1893;52.526;13.360;2023-07-29T07:29:28;7.13;;;6.53;;
3755;SDS011;1893;52.526;13.360;2023-07-29T07:31:55;11.53;;;6.60;;
3755;SDS011;1893;52.526;13.360;2023-07-29T07:34:21;7.83;;;7.23;;
3755;SDS011;1893;52.526;13.360;2023-07-29T07:36:47;8.20;;;7.47;;
3755;SDS011;1893;52.526;13.360;2023-07-29T07:39:13;7.67;;;6.97;;
3755;SDS011;1893;52.526;13.360;2023-07-29T07:41:38;8.63;;;7.73;;
3755;SDS011;1893;52.526;13.360;2023-07-29T07:44:05;7.67;;;7.03;;
3755;SDS011;1893;52.526;13.360;2023-07-29T07:46:30;7.37;;;6.60;;
3755;SDS011;1893;52.526;13.360;2023-07-29T07:48:56;8.07;;;7.30;;
3755;SDS011;1893;52.526;13.360;2023-07-29T07:51:21;6.87;;;6.27;;
3755;SDS011;1893;52.526;13.360;2023-07-29T07:53:48;7.60;;;7.10;;
3755;SDS011;1893;52.526;13.360;2023-07-29T07:56:13;7.77;;;7.07;;
3755;SDS011;1893;52.526;13.360;2023-07-29T07:58:40;8.73;;;7.93;;
3755;SDS011;1893;52.526;13.360;2023-07-29T08:01:08;6.70;;;6.27;;
3755;SDS011;1893;52.526;13.360;2023-07-29T08:03:35;7.00;;;6.40;;
3755;SDS011;1893;52.526;13.360;2023-07-29T08:06:01;7.00;;;5.47;;
3755;SDS011;1893;52.526;13.360;2023-07-29T08:08:28;5.43;;;5.03;;
3755;SDS011;1893;52.526;13.360;2023-07-29T08:10:54;5.43;;;4.90;;
3755;SDS011;1893;52.526;13.360;2023-07-29T08:13:21;5.20;;;4.70;;
3755;SDS011;1893;52.526;13.360;2023-07-29T08:15:47;5.63;;;5.23;;
3755;SDS011;1893;52.526;13.360;2023-07-29T08:18:14;6.23;;;5.70;;
3755;SDS011;1893;52.526;13.360;2023-07-29T08:20:40;5.47;;;5.07;;
3755;SDS011;1893;52.526;13.360;2023-07-29T08:23:06;4.93;;;4.53;;
3755;SDS011;1893;52.526;13.360;2023-07-29T08:25:31;6.00;;;5.40;;
3755;SDS011;1893;52.526;13.360;2023-07-29T08:27:57;5.20;;;4.90;;
3755;SDS011;1893;52.526;13.360;2023-07-29T08:30:22;5.50;;;5.00;;
3755;SDS011;1893;52.526;13.360;2023-07-29T08:32:48;5.37;;;4.90;;
3755;SDS011;1893;52.526;13.360;2023-07-29T08:35:14;5.87;;;5.37;;
3755;SDS011;1893;52.526;13.360;2023-07-29T08:37:39;5.47;;;4.20;;
3755;SDS011;1893;52.526;13.360;2023-07-29T08:40:05;5.10;;;4.10;;
3755;SDS011;1893;52.526;13.360;2023-07-29T08:42:31;4.40;;;4.10;;
3755;SDS011;1893;52.526;13.360;2023-07-29T08:44:59;4.90;;;4.30;;
3755;SDS011;1893;52.526;13.360;2023-07-29T08:47:31;6.03;;;4.40;;
3755;SDS011;1893;52.526;13.360;2023-07-29T08:49:57;4.70;;;4.30;;
3755;SDS011;1893;52.526;13.360;2023-07-29T08:52:24;4.97;;;4.57;;
3755;SDS011;1893;52.526;13.360;2023-07-29T08:54:51;5.00;;;4.60;;
3755;SDS011;1893;52.526;13.360;2023-07-29T08:57:17;5.40;;;5.00;;
3755;SDS011;1893;52.526;13.360;2023-07-29T08:59:45;3.80;;;3.57;;
3755;SDS011;1893;52.526;13.360;2023-07-29T09:02:11;3.60;;;3.30;;
3755;SDS011;1893;52.526;13.360;2023-07-29T09:04:37;4.07;;;3.67;;
3755;SDS011;1893;52.526;13.360;2023-07-29T09:07:02;5.40;;;4.47;;
3755;SDS011;1893;52.526;13.360;2023-07-29T09:09:30;4.93;;;4.00;;
3755;SDS011;1893;52.526;13.360;2023-07-29T09:11:55;3.80;;;3.60;;
3755;SDS011;1893;52.526;13.360;2023-07-29T09:14:21;4.90;;;4.40;;
3755;SDS011;1893;52.526;13.360;2023-07-29T09:16:48;4.30;;;4.00;;
3755;SDS011;1893;52.526;13.360;2023-07-29T09:19:14;3.90;;;3.60;;
3755;SDS011;1893;52.526;13.360;2023-07-29T09:21:40;4.40;;;4.00;;
3755;SDS011;1893;52.526;13.360;2023-07-29T09:24:06;4.53;;;4.23;;
3755;SDS011;1893;52.526;13.360;2023-07-29T09:26:32;4.30;;;3.90;;
3755;SDS011;1893;52.526;13.360;2023-07-29T09:28:59;10.53;;;4.50;;
3755;SDS011;1893;52.526;13.360;2023-07-29T09:31:27;4.20;;;3.70;;
3755;SDS011;1893;52.526;13.360;2023-07-29T09:33:58;4.40;;;4.00;;
3755;SDS011;1893;52.526;13.360;2023-07-29T09:36:25;3.47;;;3.10;;
3755;SDS011;1893;52.526;13.360;2023-07-29T09:38:54;3.70;;;3.40;;
3755;SDS011;1893;52.526;13.360;2023-07-29T09:41:24;3.43;;;3.13;;
3755;SDS011;1893;52.526;13.360;2023-07-29T09:43:55;3.80;;;3.40;;
3755;SDS011;1893;52.526;13.360;2023-07-29T09:46:23;4.83;;;4.43;;
3755;SDS011;1893;52.526;13.360;2023-07-29T09:48:52;3.80;;;3.50;;
3755;SDS011;1893;52.526;13.360;2023-07-29T09:51:21;3.70;;;3.50;;
3755;SDS011;1893;52.526;13.360;2023-07-29T09:53:47;4.10;;;3.80;;
3755;SDS011;1893;52.526;13.360;2023-07-29T09:56:14;4.70;;;3.23;;
3755;SDS011;1893;52.526;13.360;2023-07-29T09:58:42;3.73;;;3.47;;
3755;SDS011;1893;52.526;13.360;2023-07-29T10:01:08;3.73;;;3.43;;
3755;SDS011;1893;52.526;13.360;2023-07-29T10:03:34;3.37;;;3.17;;
3755;SDS011;1893;52.526;13.360;2023-07-29T10:06:01;3.10;;;2.90;;
3755;SDS011;1893;52.526;13.360;2023-07-29T10:08:31;3.87;;;3.50;;
3755;SDS011;1893;52.526;13.360;2023-07-29T10:11:00;3.27;;;2.60;;
3755;SDS011;1893;52.526;13.360;2023-07-29T10:13:26;3.10;;;2.90;;
3755;SDS011;1893;52.526;13.360;2023-07-29T10:15:56;3.87;;;3.00;;
3755;SDS011;1893;52.526;13.360;2023-07-29T10:18:22;3.13;;;2.93;;
3755;SDS011;1893;52.526;13.360;2023-07-29T10:20:50;2.97;;;2.77;;
3755;SDS011;1893;52.526;13.360;2023-07-29T10:23:17;3.20;;;3.00;;
3755;SDS011;1893;52.526;13.360;2023-07-29T10:25:47;2.97;;;2.77;;
3755;SDS011;1893;52.526;13.360;2023-07-29T10:28:30;2.80;;;2.63;;
3755;SDS011;1893;52.526;13.360;2023-07-29T10:30:56;3.17;;;2.97;;
3755;SDS011;1893;52.526;13.360;2023-07-29T10:33:23;3.10;;;2.43;;
3755;SDS011;1893;52.526;13.360;2023-07-29T10:35:49;2.30;;;2.20;;
3755;SDS011;1893;52.526;13.360;2023-07-29T10:38:16;2.50;;;2.33;;
3755;SDS011;1893;52.526;13.360;2023-07-29T10:40:44;2.60;;;2.40;;
3755;SDS011;1893;52.526;13.360;2023-07-29T10:43:12;2.33;;;2.23;;
3755;SDS011;1893;52.526;13.360;2023-07-29T10:45:43;2.30;;;2.10;;
3755;SDS011;1893;52.526;13.360;2023-07-29T10:48:12;2.17;;;1.97;;
3755;SDS011;1893;52.526;13.360;2023-07-29T10:56:35;2.90;;;2.70;;
3755;SDS011;1893;52.526;13.360;2023-07-29T11:01:57;2.80;;;2.60;;
3755;SDS011;1893;52.526;13.360;2023-07-29T11:04:27;2.90;;;2.50;;
3755;SDS011;1893;52.526;13.360;2023-07-29T11:17:35;2.87;;;1.40;;
3755;SDS011;1893;52.526;13.360;2023-07-29T11:20:04;2.20;;;1.43;;
3755;SDS011;1893;52.526;13.360;2023-07-29T11:22:32;1.83;;;1.10;;
3755;SDS011;1893;52.526;13.360;2023-07-29T11:24:58;1.57;;;0.93;;
3755;SDS011;1893;52.526;13.360;2023-07-29T11:27:24;2.47;;;1.03;;
3755;SDS011;1893;52.526;13.360;2023-07-29T11:29:50;1.00;;;0.90;;
3755;SDS011;1893;52.526;13.360;2023-07-29T11:32:15;2.17;;;1.10;;
3755;SDS011;1893;52.526;13.360;2023-07-29T11:34:41;1.43;;;1.30;;
3755;SDS011;1893;52.526;13.360;2023-07-29T11:37:11;1.30;;;1.10;;
3755;SDS011;1893;52.526;13.360;2023-07-29T11:39:43;1.37;;;1.03;;
3755;SDS011;1893;52.526;13.360;2023-07-29T11:42:10;1.20;;;1.00;;
3755;SDS011;1893;52.526;13.360;2023-07-29T11:44:36;1.10;;;1.00;;
3755;SDS011;1893;52.526;13.360;2023-07-29T11:47:05;5.83;;;1.20;;
3755;SDS011;1893;52.526;13.360;2023-07-29T11:49:35;2.20;;;1.20;;
3755;SDS011;1893;52.526;13.360;2023-07-29T11:52:04;0.97;;;0.97;;
3755;SDS011;1893;52.526;13.360;2023-07-29T11:54:32;7.93;;;1.63;;
3755;SDS011;1893;52.526;13.360;2023-07-29T11:56:59;1.60;;;1.20;;
3755;SDS011;1893;52.526;13.360;2023-07-29T11:59:25;3.90;;;1.77;;
3755;SDS011;1893;52.526;13.360;2023-07-29T12:01:53;2.50;;;1.77;;
3755;SDS011;1893;52.526;13.360;2023-07-29T12:04:19;3.30;;;1.60;;
3755;SDS011;1893;52.526;13.360;2023-07-29T12:06:45;2.37;;;1.33;;
3755;SDS011;1893;52.526;13.360;2023-07-29T12:09:11;2.03;;;1.53;;
3755;SDS011;1893;52.526;13.360;2023-07-29T12:11:38;1.37;;;1.27;;
3755;SDS011;1893;52.526;13.360;2023-07-29T12:14:07;1.30;;;1.10;;
3755;SDS011;1893;52.526;13.360;2023-07-29T12:16:39;2.77;;;1.33;;
3755;SDS011;1893;52.526;13.360;2023-07-29T12:19:08;1.73;;;1.30;;
3755;SDS011;1893;52.526;13.360;2023-07-29T12:21:36;4.33;;;1.10;;
3755;SDS011;1893;52.526;13.360;2023-07-29T12:24:02;1.87;;;1.30;;
3755;SDS011;1893;52.526;13.360;2023-07-29T12:26:29;1.77;;;1.40;;
3755;SDS011;1893;52.526;13.360;2023-07-29T12:28:55;1.63;;;1.23;;
3755;SDS011;1893;52.526;13.360;2023-07-29T12:31:21;4.80;;;1.27;;
3755;SDS011;1893;52.526;13.360;2023-07-29T12:33:56;6.83;;;1.70;;
3755;SDS011;1893;52.526;13.360;2023-07-29T12:36:22;1.73;;;1.63;;
3755;SDS011;1893;52.526;13.360;2023-07-29T12:38:52;5.33;;;1.57;;
3755;SDS011;1893;52.526;13.360;2023-07-29T12:41:17;1.70;;;1.40;;
3755;SDS011;1893;52.526;13.360;2023-07-29T12:43:43;1.73;;;1.47;;
3755;SDS011;1893;52.526;13.360;2023-07-29T12:46:08;2.37;;;1.93;;
3755;SDS011;1893;52.526;13.360;2023-07-29T12:48:34;3.83;;;2.20;;
3755;SDS011;1893;52.526;13.360;2023-07-29T12:51:00;2.33;;;2.13;;
3755;SDS011;1893;52.526;13.360;2023-07-29T12:53:25;2.73;;;2.50;;
3755;SDS011;1893;52.526;13.360;2023-07-29T12:55:51;2.80;;;2.40;;
3755;SDS011;1893;52.526;13.360;2023-07-29T12:58:16;3.10;;;2.90;;
3755;SDS011;1893;52.526;13.360;2023-07-29T13:00:42;2.53;;;2.30;;
3755;SDS011;1893;52.526;13.360;2023-07-29T13:03:08;3.67;;;3.37;;
3755;SDS011;1893;52.526;13.360;2023-07-29T13:05:33;2.90;;;2.60;;
3755;SDS011;1893;52.526;13.360;2023-07-29T13:07:59;4.80;;;3.20;;
3755;SDS011;1893;52.526;13.360;2023-07-29T13:10:25;4.20;;;3.80;;
3755;SDS011;1893;52.526;13.360;2023-07-29T13:12:50;2.90;;;2.70;;
3755;SDS011;1893;52.526;13.360;2023-07-29T13:15:16;4.20;;;3.37;;
3755;SDS011;1893;52.526;13.360;2023-07-29T13:17:41;5.50;;;3.17;;
3755;SDS011;1893;52.526;13.360;2023-07-29T13:20:07;3.13;;;2.93;;
3755;SDS011;1893;52.526;13.360;2023-07-29T13:22:33;3.20;;;3.00;;
3755;SDS011;1893;52.526;13.360;2023-07-29T13:24:59;4.20;;;3.30;;
3755;SDS011;1893;52.526;13.360;2023-07-29T13:27:24;3.63;;;3.07;;
3755;SDS011;1893;52.526;13.360;2023-07-29T13:29:51;3.60;;;3.30;;
3755;SDS011;1893;52.526;13.360;2023-07-29T13:32:17;3.10;;;2.90;;
3755;SDS011;1893;52.526;13.360;2023-07-29T13:34:42;2.73;;;2.53;;
3755;SDS011;1893;52.526;13.360;2023-07-29T13:37:08;3.30;;;3.00;;
3755;SDS011;1893;52.526;13.360;2023-07-29T13:39:34;3.57;;;2.70;;
3755;SDS011;1893;52.526;13.360;2023-07-29T13:41:59;2.57;;;2.37;;
3755;SDS011;1893;52.526;13.360;2023-07-29T13:44:25;3.73;;;3.00;;
3755;SDS011;1893;52.526;13.360;2023-07-29T13:46:50;2.00;;;1.90;;
3755;SDS011;1893;52.526;13.360;2023-07-29T13:49:16;2.80;;;2.57;;
3755;SDS011;1893;52.526;13.360;2023-07-29T13:51:42;2.03;;;1.93;;
3755;SDS011;1893;52.526;13.360;2023-07-29T13:54:07;1.70;;;1.60;;
3755;SDS011;1893;52.526;13.360;2023-07-29T13:56:33;3.10;;;1.83;;
3755;SDS011;1893;52.526;13.360;2023-07-29T13:58:58;2.03;;;1.93;;
3755;SDS011;1893;52.526;13.360;2023-07-29T14:01:24;1.87;;;1.60;;
3755;SDS011;1893;52.526;13.360;2023-07-29T14:03:50;1.80;;;1.70;;
3755;SDS011;1893;52.526;13.360;2023-07-29T14:06:15;1.70;;;1.60;;
3755;SDS011;1893;52.526;13.360;2023-07-29T14:08:41;1.30;;;1.20;;
3755;SDS011;1893;52.526;13.360;2023-07-29T14:11:07;1.60;;;1.50;;
3755;SDS011;1893;52.526;13.360;2023-07-29T14:13:33;2.43;;;1.50;;
3755;SDS011;1893;52.526;13.360;2023-07-29T14:16:00;1.60;;;1.50;;
3755;SDS011;1893;52.526;13.360;2023-07-29T14:18:27;1.60;;;1.50;;
3755;SDS011;1893;52.526;13.360;2023-07-29T14:20:53;2.10;;;1.50;;
3755;SDS011;1893;52.526;13.360;2023-07-29T14:23:19;1.50;;;1.40;;
3755;SDS011;1893;52.526;13.360;2023-07-29T14:25:44;2.10;;;1.60;;
3755;SDS011;1893;52.526;13.360;2023-07-29T14:28:10;2.40;;;1.97;;
3755;SDS011;1893;52.526;13.360;2023-07-29T14:30:38;1.80;;;1.70;;
3755;SDS011;1893;52.526;13.360;2023-07-29T14:33:03;2.23;;;2.03;;
3755;SDS011;1893;52.526;13.360;2023-07-29T14:35:29;1.40;;;1.30;;
3755;SDS011;1893;52.526;13.360;2023-07-29T14:37:55;2.13;;;1.87;;
3755;SDS011;1893;52.526;13.360;2023-07-29T14:40:20;2.47;;;1.70;;
3755;SDS011;1893;52.526;13.360;2023-07-29T14:42:46;2.27;;;1.60;;
3755;SDS011;1893;52.526;13.360;2023-07-29T14:45:12;1.70;;;1.50;;
3755;SDS011;1893;52.526;13.360;2023-07-29T14:47:37;1.47;;;1.37;;
3755;SDS011;1893;52.526;13.360;2023-07-29T14:50:03;1.37;;;1.27;;
3755;SDS011;1893;52.526;13.360;2023-07-29T14:52:29;1.90;;;1.20;;
3755;SDS011;1893;52.526;13.360;2023-07-29T14:54:55;1.70;;;1.60;;
3755;SDS011;1893;52.526;13.360;2023-07-29T14:57:20;2.13;;;1.93;;
3755;SDS011;1893;52.526;13.360;2023-07-29T14:59:46;1.80;;;1.70;;
3755;SDS011;1893;52.526;13.360;2023-07-29T15:02:12;1.90;;;1.80;;
3755;SDS011;1893;52.526;13.360;2023-07-29T15:04:37;1.60;;;1.50;;
3755;SDS011;1893;52.526;13.360;2023-07-29T15:07:03;1.60;;;1.50;;
3755;SDS011;1893;52.526;13.360;2023-07-29T15:09:29;1.50;;;1.40;;